createdAt,value
2023-02-11T00:01:44.565Z,101510.09
2023-02-11T00:04:13.476Z,101514.28
2023-02-11T00:06:42.394Z,101510.44
2023-02-11T00:09:12.116Z,101515.06
2023-02-11T00:11:41.359Z,101519.44
2023-02-11T00:14:13.003Z,101516.97
2023-02-11T00:16:42.297Z,101537.09
2023-02-11T00:19:12.207Z,101522.72
2023-02-11T00:21:41.829Z,101525.41
2023-02-11T00:24:10.435Z,101527.09
2023-02-11T00:26:39.401Z,101520.25
2023-02-11T00:29:08.232Z,101516.78
2023-02-11T00:31:37.328Z,101515.63
2023-02-11T00:34:07.332Z,101530.13
2023-02-11T00:36:37.591Z,101528.19
2023-02-11T00:39:06.663Z,101528.09
2023-02-11T00:41:37.766Z,101521.06
2023-02-11T00:44:06.652Z,101516.88
2023-02-11T00:46:35.532Z,101519.56
2023-02-11T00:49:04.445Z,101513.66
2023-02-11T00:51:33.508Z,101509.13
2023-02-11T00:54:05.740Z,101517.31
2023-02-11T00:56:34.937Z,101507.97
2023-02-11T00:59:04.085Z,101504.06
2023-02-11T01:01:33.242Z,101514.72
2023-02-11T01:04:01.958Z,101511.03
2023-02-11T01:06:30.881Z,101509.41
2023-02-11T01:08:59.977Z,101502.38
2023-02-11T01:11:30.352Z,101498.38
2023-02-11T01:13:59.020Z,101498.13
2023-02-11T01:16:27.883Z,101494.63
2023-02-11T01:18:56.612Z,101496.84
2023-02-11T01:21:26.028Z,101492.56
2023-02-11T01:23:54.631Z,101492.75
2023-02-11T01:26:23.565Z,101488.75
2023-02-11T01:28:53.555Z,101484.69
2023-02-11T01:31:22.591Z,101477.09
2023-02-11T01:33:51.168Z,101479.84
2023-02-11T01:36:20.013Z,101481.00
2023-02-11T01:38:49.997Z,101472.53
2023-02-11T01:41:20.870Z,101468.19
2023-02-11T01:43:51.166Z,101464.09
2023-02-11T01:46:31.699Z,101463.22
2023-02-11T01:49:05.294Z,101456.97
2023-02-11T01:51:39.790Z,101447.72
2023-02-11T01:54:28.769Z,101455.66
2023-02-11T01:57:18.858Z,101447.72
2023-02-11T01:59:53.637Z,101447.28
2023-02-11T02:02:31.926Z,101441.97
2023-02-11T02:05:07.157Z,101440.47
2023-02-11T02:07:43.381Z,101442.13
2023-02-11T02:10:19.412Z,101441.59
2023-02-11T02:12:48.441Z,101442.22
2023-02-11T02:15:26.415Z,101441.34
2023-02-11T02:18:01.750Z,101438.38
2023-02-11T02:21:03.041Z,101424.84
2023-02-11T02:23:59.228Z,101432.00
2023-02-11T02:27:00.311Z,101433.72
2023-02-11T02:30:09.898Z,101420.53
2023-02-11T02:32:53.324Z,101425.78
2023-02-11T02:35:36.101Z,101431.91
2023-02-11T02:38:09.815Z,101427.91
2023-02-11T02:40:45.591Z,101421.94
2023-02-11T02:43:15.009Z,101418.03
2023-02-11T02:45:43.812Z,101427.56
2023-02-11T02:48:27.642Z,101424.25
2023-02-11T02:51:10.349Z,101424.50
2023-02-11T02:53:53.339Z,101422.56
2023-02-11T02:56:29.683Z,101418.03
2023-02-11T02:59:14.866Z,101423.19
2023-02-11T03:01:54.742Z,101412.06
2023-02-11T03:04:32.176Z,101414.66
2023-02-11T03:07:05.234Z,101412.59
2023-02-11T03:09:40.548Z,101402.56
2023-02-11T03:12:11.724Z,101402.97
2023-02-11T03:14:42.016Z,101407.16
2023-02-11T03:17:11.888Z,101394.19
2023-02-11T03:19:44.918Z,101400.25
2023-02-11T03:22:21.337Z,101389.84
2023-02-11T03:24:50.880Z,101391.69
2023-02-11T03:27:22.821Z,101392.31
2023-02-11T03:29:59.158Z,101382.53
2023-02-11T03:32:31.618Z,101387.13
2023-02-11T03:35:06.553Z,101383.88
2023-02-11T03:37:40.923Z,101385.44
2023-02-11T03:40:13.618Z,101374.41
2023-02-11T03:42:49.568Z,101377.19
2023-02-11T03:45:21.237Z,101377.53
2023-02-11T03:47:55.981Z,101377.00
2023-02-11T03:50:29.497Z,101375.59
2023-02-11T03:53:00.534Z,101374.75
2023-02-11T03:55:31.115Z,101376.34
2023-02-11T03:58:00.063Z,101373.78
2023-02-11T04:00:31.961Z,101363.84
2023-02-11T04:03:00.998Z,101360.09
2023-02-11T04:05:31.622Z,101360.47
2023-02-11T04:08:00.527Z,101357.69
2023-02-11T04:10:29.224Z,101361.09
2023-02-11T04:12:58.609Z,101361.69
2023-02-11T04:15:27.222Z,101359.13
2023-02-11T04:17:56.063Z,101356.72
2023-02-11T04:20:24.629Z,101351.56
2023-02-11T04:22:54.846Z,101350.16
2023-02-11T04:25:23.573Z,101348.19
2023-02-11T04:27:52.393Z,101350.69
2023-02-11T04:30:21.164Z,101345.06
2023-02-11T04:32:50.041Z,101353.06
2023-02-11T04:35:18.758Z,101347.75
2023-02-11T04:37:47.864Z,101343.56
2023-02-11T04:40:18.207Z,101343.66
2023-02-11T04:42:47.041Z,101337.59
2023-02-11T04:45:15.481Z,101346.16
2023-02-11T04:47:44.736Z,101354.84
2023-02-11T04:50:13.335Z,101344.66
2023-02-11T04:52:42.157Z,101353.25
2023-02-11T04:55:10.810Z,101347.03
2023-02-11T04:57:41.123Z,101352.09
2023-02-11T05:00:11.240Z,101347.66
2023-02-11T05:02:41.135Z,101351.31
2023-02-11T05:05:09.853Z,101344.97
2023-02-11T05:07:38.938Z,101352.59
2023-02-11T05:10:07.753Z,101356.69
2023-02-11T05:12:36.698Z,101358.66
2023-02-11T05:15:07.552Z,101364.78
2023-02-11T05:17:36.731Z,101357.75
2023-02-11T05:20:05.813Z,101356.88
2023-02-11T05:22:34.738Z,101358.56
2023-02-11T05:25:03.339Z,101356.69
2023-02-11T05:27:32.219Z,101360.06
2023-02-11T05:30:00.812Z,101359.09
2023-02-11T05:32:31.261Z,101357.84
2023-02-11T05:34:59.841Z,101358.00
2023-02-11T05:37:28.806Z,101362.44
2023-02-11T05:39:57.496Z,101366.72
2023-02-11T05:42:26.429Z,101364.75
2023-02-11T05:44:55.102Z,101366.34
2023-02-11T05:47:24.320Z,101365.53
2023-02-11T05:49:54.651Z,101365.53
2023-02-11T05:52:24.415Z,101368.03
2023-02-11T05:54:53.245Z,101361.09
2023-02-11T05:57:22.200Z,101362.19
2023-02-11T05:59:50.714Z,101366.34
2023-02-11T06:02:19.794Z,101361.47
2023-02-11T06:04:48.393Z,101371.59
2023-02-11T06:07:19.916Z,101366.81
2023-02-11T06:09:48.658Z,101370.47
2023-02-11T06:12:17.661Z,101362.44
2023-02-11T06:14:46.414Z,101365.41
2023-02-11T06:17:15.820Z,101365.78
2023-02-11T06:19:44.456Z,101356.34
2023-02-11T06:22:13.346Z,101368.38
2023-02-11T06:25:00.308Z,101366.25
2023-02-11T06:27:31.278Z,101374.09
2023-02-11T06:30:00.016Z,101370.59
2023-02-11T06:32:46.164Z,101378.19
2023-02-11T06:35:15.945Z,101380.41
2023-02-11T06:37:44.862Z,101375.00
2023-02-11T06:40:14.898Z,101377.41
2023-02-11T06:42:43.791Z,101377.13
2023-02-11T06:45:13.394Z,101382.91
2023-02-11T06:47:42.999Z,101379.25
2023-02-11T06:50:15.161Z,101374.06
2023-02-11T06:52:44.069Z,101371.91
2023-02-11T06:55:14.544Z,101374.34
2023-02-11T06:57:43.534Z,101379.28
2023-02-11T07:00:13.469Z,101367.06
2023-02-11T07:02:42.339Z,101376.38
2023-02-11T07:05:12.417Z,101365.13
2023-02-11T07:07:41.595Z,101356.16
2023-02-11T07:10:10.525Z,101355.03
2023-02-11T07:12:41.347Z,101353.84
2023-02-11T07:15:10.180Z,101356.00
2023-02-11T07:17:39.212Z,101354.38
2023-02-11T07:20:09.236Z,101348.94
2023-02-11T07:22:38.504Z,101344.25
2023-02-11T07:25:07.575Z,101346.63
2023-02-11T07:27:36.914Z,101343.72
2023-02-11T07:30:07.758Z,101341.88
2023-02-11T07:32:36.681Z,101340.50
2023-02-11T07:35:05.968Z,101329.84
2023-02-11T07:37:35.179Z,101326.78
2023-02-11T07:40:03.875Z,101335.91
2023-02-11T07:42:32.728Z,101331.31
2023-02-11T07:45:01.322Z,101327.78
2023-02-11T07:47:31.661Z,101332.84
2023-02-11T07:50:00.188Z,101324.34
2023-02-11T07:52:30.832Z,101322.41
2023-02-11T07:54:59.377Z,101325.88
2023-02-11T07:57:28.877Z,101328.03
2023-02-11T07:59:57.380Z,101313.19
2023-02-11T08:02:26.331Z,101317.66
2023-02-11T08:04:56.453Z,101328.63
2023-02-11T08:07:26.128Z,101326.13
2023-02-11T08:09:55.623Z,101322.31
2023-02-11T08:12:24.690Z,101321.31
2023-02-11T08:14:53.277Z,101316.91
2023-02-11T08:17:22.241Z,101309.09
2023-02-11T08:19:51.033Z,101307.22
2023-02-11T08:22:21.418Z,101311.88
2023-02-11T08:24:52.327Z,101310.66
2023-02-11T08:27:21.330Z,101311.25
2023-02-11T08:29:49.890Z,101314.22
2023-02-11T08:32:18.829Z,101305.63
2023-02-11T08:34:48.620Z,101301.38
2023-02-11T08:37:17.792Z,101299.53
2023-02-11T08:39:48.601Z,101301.09
2023-02-11T08:42:17.855Z,101308.34
2023-02-11T08:44:46.487Z,101303.81
2023-02-11T08:47:17.139Z,101297.41
2023-02-11T08:49:45.887Z,101300.09
2023-02-11T08:52:15.265Z,101300.28
2023-02-11T08:54:44.061Z,101297.72
2023-02-11T08:57:15.025Z,101302.09
2023-02-11T08:59:43.882Z,101305.06
2023-02-11T09:02:14.311Z,101305.47
2023-02-11T09:04:43.252Z,101295.84
2023-02-11T09:07:12.834Z,101306.63
2023-02-11T09:09:42.053Z,101311.94
2023-02-11T09:12:11.450Z,101305.38
2023-02-11T09:14:43.171Z,101303.00
2023-02-11T09:17:12.291Z,101305.09
2023-02-11T09:19:41.163Z,101304.66
2023-02-11T09:22:10.416Z,101309.16
2023-02-11T09:24:39.218Z,101306.22
2023-02-11T09:27:07.992Z,101301.50
2023-02-11T09:29:36.590Z,101312.00
2023-02-11T09:32:09.819Z,101305.66
2023-02-11T09:34:38.762Z,101318.00
2023-02-11T09:37:07.725Z,101318.09
2023-02-11T09:39:36.603Z,101313.69
2023-02-11T09:42:31.551Z,101319.78
2023-02-11T09:45:02.109Z,101310.84
2023-02-11T09:47:35.485Z,101317.34
2023-02-11T09:50:07.962Z,101311.06
2023-02-11T09:52:45.263Z,101300.56
2023-02-11T09:55:21.592Z,101294.66
2023-02-11T09:57:50.859Z,101287.94
2023-02-11T10:00:24.103Z,101288.84
2023-02-11T10:03:28.012Z,101292.53
2023-02-11T10:06:21.282Z,101286.38
2023-02-11T10:09:00.407Z,101264.44
2023-02-11T10:11:37.900Z,101271.19
2023-02-11T10:14:22.957Z,101254.06
2023-02-11T10:17:08.289Z,101254.59
2023-02-11T10:19:52.536Z,101244.38
2023-02-11T10:22:26.737Z,101245.91
2023-02-11T10:24:58.436Z,101236.81
2023-02-11T10:27:31.915Z,101244.28
2023-02-11T10:30:05.918Z,101242.56
2023-02-11T10:32:43.057Z,101232.53
2023-02-11T10:35:18.040Z,101227.97
2023-02-11T10:37:46.909Z,101219.44
2023-02-11T10:40:18.716Z,101215.63
2023-02-11T10:42:49.980Z,101199.47
2023-02-11T10:45:24.824Z,101199.25
2023-02-11T10:47:53.451Z,101195.41
2023-02-11T10:50:27.379Z,101193.38
2023-02-11T10:53:13.550Z,101187.44
2023-02-11T10:55:52.888Z,101181.50
2023-02-11T10:58:28.215Z,101178.59
2023-02-11T11:01:00.005Z,101174.94
2023-02-11T11:03:33.674Z,101162.06
2023-02-11T11:06:07.897Z,101165.63
2023-02-11T11:08:43.338Z,101164.53
2023-02-11T11:11:15.140Z,101156.44
2023-02-11T11:13:56.505Z,101155.53
2023-02-11T11:16:28.397Z,101152.19
2023-02-11T11:19:17.343Z,101150.75
2023-02-11T11:21:49.715Z,101149.91
2023-02-11T11:24:22.890Z,101146.88
2023-02-11T11:26:55.409Z,101135.25
2023-02-11T11:29:29.334Z,101136.41
2023-02-11T11:32:01.412Z,101131.53
2023-02-11T11:34:32.926Z,101129.00
2023-02-11T11:37:12.066Z,101123.00
2023-02-11T11:39:41.236Z,101129.22
2023-02-11T11:42:26.964Z,101116.34
2023-02-11T11:45:01.160Z,101124.09
2023-02-11T11:47:37.320Z,101127.84
2023-02-11T11:50:35.429Z,101116.78
2023-02-11T11:53:13.966Z,101111.75
2023-02-11T11:55:46.950Z,101100.34
2023-02-11T11:58:20.103Z,101097.97
2023-02-11T12:00:59.147Z,101093.59
2023-02-11T12:04:01.660Z,101106.44
2023-02-11T12:06:42.715Z,101093.81
2023-02-11T12:09:24.886Z,101091.09
2023-02-11T12:12:20.968Z,101087.56
2023-02-11T12:14:59.690Z,101092.88
2023-02-11T12:17:48.179Z,101091.09
2023-02-11T12:20:39.079Z,101074.25
2023-02-11T12:23:31.269Z,101070.66
2023-02-11T12:26:14.072Z,101063.88
2023-02-11T12:28:57.844Z,101065.69
2023-02-11T12:31:39.459Z,101059.88
2023-02-11T12:34:46.303Z,101054.84
2023-02-11T12:37:33.521Z,101048.19
2023-02-11T12:40:15.513Z,101056.47
2023-02-11T12:43:19.412Z,101057.31
2023-02-11T12:46:02.710Z,101048.28
2023-02-11T12:49:07.417Z,101041.75
2023-02-11T12:51:56.941Z,101039.69
2023-02-11T12:54:31.746Z,101050.06
2023-02-11T12:57:05.198Z,101032.91
2023-02-11T12:59:43.408Z,101030.97
2023-02-11T13:02:25.903Z,101033.84
2023-02-11T13:04:58.418Z,101043.78
2023-02-11T13:07:31.182Z,101041.78
2023-02-11T13:10:07.824Z,101042.13
2023-02-11T13:12:55.545Z,101044.25
2023-02-11T13:15:26.263Z,101041.06
2023-02-11T13:18:02.243Z,101031.22
2023-02-11T13:20:42.885Z,101033.63
2023-02-11T13:23:20.263Z,101020.97
2023-02-11T13:25:54.326Z,101017.09
2023-02-11T13:28:36.067Z,101020.16
2023-02-11T13:31:08.126Z,101024.09
2023-02-11T13:33:39.616Z,101027.41
2023-02-11T13:36:18.299Z,101019.56
2023-02-11T13:38:56.946Z,101009.94
2023-02-11T13:41:30.414Z,101010.28
2023-02-11T13:44:02.148Z,101003.66
2023-02-11T13:47:04.868Z,100993.09
2023-02-11T13:49:37.592Z,100995.03
2023-02-11T13:52:17.681Z,100998.63
2023-02-11T13:54:51.363Z,101008.41
2023-02-11T13:57:37.586Z,100999.75
2023-02-11T14:00:50.082Z,101011.25
2023-02-11T14:03:47.094Z,101009.31
2023-02-11T14:06:37.446Z,100999.50
2023-02-11T14:09:40.416Z,101009.41
2023-02-11T14:12:31.555Z,100998.16
2023-02-11T14:15:20.610Z,100987.72
2023-02-11T14:17:49.363Z,100984.22
2023-02-11T14:20:44.736Z,100973.53
2023-02-11T14:23:31.136Z,100979.75
2023-02-11T14:26:10.053Z,100975.91
2023-02-11T14:28:41.781Z,100962.59
2023-02-11T14:31:14.773Z,100955.38
2023-02-11T14:34:07.310Z,100950.56
2023-02-11T14:36:52.044Z,100960.41
2023-02-11T14:39:47.527Z,100951.44
2023-02-11T14:42:21.075Z,100955.03
2023-02-11T14:44:52.047Z,100944.50
2023-02-11T14:47:26.987Z,100936.09
2023-02-11T14:49:56.007Z,100937.28
2023-02-11T14:52:30.739Z,100925.22
2023-02-11T14:55:14.718Z,100928.31
2023-02-11T14:57:45.769Z,100914.59
2023-02-11T15:00:21.497Z,100911.72
2023-02-11T15:02:50.755Z,100908.88
2023-02-11T15:05:22.759Z,100926.97
2023-02-11T15:07:55.942Z,100920.91
2023-02-11T15:10:33.132Z,100922.50
2023-02-11T15:13:04.600Z,100931.91
2023-02-11T15:15:35.924Z,100923.25
2023-02-11T15:18:06.470Z,100920.88
2023-02-11T15:20:35.957Z,100919.34
2023-02-11T15:23:10.421Z,100932.09
2023-02-11T15:25:44.327Z,100933.06
2023-02-11T15:28:23.152Z,100944.25
2023-02-11T15:30:59.617Z,100935.78
2023-02-11T15:33:30.467Z,100940.31
2023-02-11T15:36:00.585Z,100928.94
2023-02-11T15:38:32.056Z,100929.50
2023-02-11T15:41:02.391Z,100908.81
2023-02-11T15:43:45.374Z,100918.91
2023-02-11T15:46:17.978Z,100915.38
2023-02-11T15:48:49.969Z,100917.69
2023-02-11T15:51:22.882Z,100929.56
2023-02-11T15:53:57.166Z,100922.22
2023-02-11T15:56:30.862Z,100911.97
2023-02-11T15:59:02.213Z,100908.22
2023-02-11T16:01:34.132Z,100901.91
2023-02-11T16:04:05.453Z,100897.31
2023-02-11T16:06:39.481Z,100905.59
2023-02-11T16:09:26.696Z,100887.69
2023-02-11T16:11:58.203Z,100898.59
2023-02-11T16:14:32.614Z,100902.38
2023-02-11T16:17:07.063Z,100913.66
2023-02-11T16:19:37.323Z,100905.31
2023-02-11T16:22:11.660Z,100912.44
2023-02-11T16:24:42.013Z,100908.84
2023-02-11T16:27:22.903Z,100915.31
2023-02-11T16:29:52.938Z,100920.72
2023-02-11T16:32:24.068Z,100912.00
2023-02-11T16:34:55.189Z,100923.28
2023-02-11T16:37:23.940Z,100923.72
2023-02-11T16:39:56.382Z,100922.38
2023-02-11T16:42:25.346Z,100918.16
2023-02-11T16:44:54.174Z,100918.53
2023-02-11T16:47:26.181Z,100918.69
2023-02-11T16:49:56.779Z,100910.25
2023-02-11T16:52:26.641Z,100914.88
2023-02-11T16:54:56.843Z,100916.84
2023-02-11T16:57:29.649Z,100910.19
2023-02-11T17:00:00.021Z,100910.75
2023-02-11T17:02:30.815Z,100907.66
2023-02-11T17:05:02.571Z,100906.09
2023-02-11T17:07:31.394Z,100902.94
2023-02-11T17:10:02.214Z,100903.59
2023-02-11T17:12:30.812Z,100906.31
2023-02-11T17:14:59.585Z,100895.03
2023-02-11T17:17:29.457Z,100896.09
2023-02-11T17:19:58.393Z,100899.63
2023-02-11T17:22:27.008Z,100891.00
2023-02-11T17:24:57.177Z,100889.28
2023-02-11T17:27:27.149Z,100883.25
2023-02-11T17:29:56.119Z,100883.25
2023-02-11T17:32:24.801Z,100878.91
2023-02-11T17:34:54.330Z,100875.44
2023-02-11T17:37:22.901Z,100886.53
2023-02-11T17:39:51.849Z,100893.34
2023-02-11T17:42:20.312Z,100890.50
2023-02-11T17:44:50.728Z,100897.38
2023-02-11T17:47:19.287Z,100894.78
2023-02-11T17:49:48.211Z,100898.22
2023-02-11T17:52:16.845Z,100886.84
2023-02-11T17:54:45.963Z,100883.28
2023-02-11T17:57:14.925Z,100898.78
2023-02-11T17:59:43.971Z,100886.53
2023-02-11T18:02:14.172Z,100884.09
2023-02-11T18:04:43.106Z,100883.88
2023-02-11T18:07:11.689Z,100885.63
2023-02-11T18:09:41.923Z,100879.28
2023-02-11T18:12:11.248Z,100868.00
2023-02-11T18:14:40.900Z,100860.19
2023-02-11T18:17:10.509Z,100867.94
2023-02-11T18:19:40.991Z,100860.09
2023-02-11T18:22:09.843Z,100850.53
2023-02-11T18:24:38.823Z,100855.56
2023-02-11T18:27:07.367Z,100865.69
2023-02-11T18:29:36.394Z,100856.09
2023-02-11T18:32:05.200Z,100856.06
2023-02-11T18:34:33.995Z,100860.38
2023-02-11T18:37:04.005Z,100857.69
2023-02-11T18:39:32.889Z,100865.38
2023-02-11T18:42:01.827Z,100865.13
2023-02-11T18:44:30.808Z,100879.75
2023-02-11T18:46:59.379Z,100885.00
2023-02-11T18:49:28.840Z,100877.06
2023-02-11T18:51:58.696Z,100879.69
2023-02-11T18:54:28.912Z,100875.31
2023-02-11T18:56:57.488Z,100868.31
2023-02-11T18:59:26.418Z,100870.50
2023-02-11T19:01:55.032Z,100866.94
2023-02-11T19:04:23.850Z,100865.81
2023-02-11T19:06:52.552Z,100864.97
2023-02-11T19:09:22.092Z,100854.09
2023-02-11T19:11:53.947Z,100855.22
2023-02-11T19:14:24.756Z,100847.16
2023-02-11T19:16:55.598Z,100838.78
2023-02-11T19:19:28.082Z,100833.19
2023-02-11T19:21:58.020Z,100823.25
2023-02-11T19:24:28.623Z,100835.41
2023-02-11T19:27:01.292Z,100826.63
2023-02-11T19:29:32.169Z,100836.63
2023-02-11T19:32:00.822Z,100841.41
2023-02-11T19:34:29.782Z,100846.06
2023-02-11T19:36:59.713Z,100837.66
2023-02-11T19:39:28.559Z,100845.78
2023-02-11T19:41:58.649Z,100850.34
2023-02-11T19:44:27.497Z,100847.81
2023-02-11T19:46:56.129Z,100849.44
2023-02-11T19:49:26.411Z,100850.25
2023-02-11T19:51:58.196Z,100844.56
2023-02-11T19:54:29.188Z,100843.69
2023-02-11T19:57:00.008Z,100844.84
2023-02-11T19:59:29.012Z,100841.44
2023-02-11T20:01:57.712Z,100844.28
2023-02-11T20:04:26.701Z,100838.22
2023-02-11T20:06:55.201Z,100822.69
2023-02-11T20:09:24.538Z,100827.00
2023-02-11T20:11:53.412Z,100822.72
2023-02-11T20:14:25.572Z,100822.78
2023-02-11T20:16:55.374Z,100817.50
2023-02-11T20:19:24.484Z,100820.78
2023-02-11T20:21:56.140Z,100822.63
2023-02-11T20:24:26.642Z,100807.91
2023-02-11T20:26:56.573Z,100808.28
2023-02-11T20:29:27.442Z,100810.50
2023-02-11T20:31:56.242Z,100813.03
2023-02-11T20:34:25.439Z,100803.63
2023-02-11T20:36:54.909Z,100797.63
2023-02-11T20:39:25.693Z,100798.44
2023-02-11T20:41:54.885Z,100792.38
2023-02-11T20:44:24.655Z,100791.50
2023-02-11T20:46:55.569Z,100795.69
2023-02-11T20:49:26.950Z,100783.50
2023-02-11T20:51:58.384Z,100790.97
2023-02-11T20:54:27.500Z,100778.31
2023-02-11T20:56:57.088Z,100767.16
2023-02-11T20:59:26.472Z,100776.06
2023-02-11T21:01:57.838Z,100767.75
2023-02-11T21:04:29.491Z,100767.75
2023-02-11T21:07:00.293Z,100777.38
2023-02-11T21:09:31.666Z,100785.41
2023-02-11T21:12:00.615Z,100781.03
2023-02-11T21:14:30.197Z,100776.91
2023-02-11T21:17:00.127Z,100774.56
2023-02-11T21:19:29.162Z,100774.41
2023-02-11T21:22:00.692Z,100782.44
2023-02-11T21:24:30.900Z,100774.63
2023-02-11T21:27:00.278Z,100769.81
2023-02-11T21:29:29.245Z,100768.03
2023-02-11T21:31:59.246Z,100763.59
2023-02-11T21:34:28.204Z,100760.75
2023-02-11T21:36:56.860Z,100763.16
2023-02-11T21:39:25.742Z,100761.63
2023-02-11T21:41:55.992Z,100751.50
2023-02-11T21:44:24.803Z,100742.91
2023-02-11T21:46:53.478Z,100753.59
2023-02-11T21:49:23.731Z,100746.78
2023-02-11T21:51:52.241Z,100740.75
2023-02-11T21:54:21.083Z,100732.03
2023-02-11T21:56:51.949Z,100724.75
2023-02-11T21:59:20.901Z,100727.59
2023-02-11T22:01:50.349Z,100727.66
2023-02-11T22:04:19.271Z,100711.16
2023-02-11T22:06:49.417Z,100716.06
2023-02-11T22:09:19.355Z,100723.75
2023-02-11T22:11:49.340Z,100724.06
2023-02-11T22:14:18.258Z,100724.31
2023-02-11T22:16:46.935Z,100725.34
2023-02-11T22:19:16.319Z,100720.38
2023-02-11T22:21:44.805Z,100724.75
2023-02-11T22:24:15.122Z,100726.69
2023-02-11T22:26:43.823Z,100716.50
2023-02-11T22:29:13.168Z,100720.97
2023-02-11T22:31:42.938Z,100720.03
2023-02-11T22:34:12.634Z,100713.22
2023-02-11T22:36:44.705Z,100717.38
2023-02-11T22:39:16.904Z,100718.25
2023-02-11T22:41:47.516Z,100720.09
2023-02-11T22:44:17.591Z,100715.94
2023-02-11T22:46:46.203Z,100717.88
2023-02-11T22:49:17.503Z,100701.63
2023-02-11T22:51:46.703Z,100698.25
2023-02-11T22:54:18.964Z,100695.84
2023-02-11T22:56:51.626Z,100692.22
2023-02-11T22:59:21.467Z,100690.59
2023-02-11T23:01:50.371Z,100679.44
2023-02-11T23:04:20.930Z,100676.63
2023-02-11T23:06:50.435Z,100672.50
2023-02-11T23:09:20.670Z,100674.34
2023-02-11T23:11:49.982Z,100670.72
2023-02-11T23:14:18.845Z,100669.91
2023-02-11T23:16:50.746Z,100671.09
2023-02-11T23:19:19.952Z,100672.41
2023-02-11T23:21:52.463Z,100669.78
2023-02-11T23:24:23.089Z,100668.09
2023-02-11T23:26:52.089Z,100662.03
2023-02-11T23:29:21.233Z,100661.59
2023-02-11T23:31:49.993Z,100659.25
2023-02-11T23:34:23.949Z,100654.09
2023-02-11T23:36:52.588Z,100649.13
2023-02-11T23:39:22.831Z,100648.34
2023-02-11T23:41:53.088Z,100642.25
2023-02-11T23:44:22.008Z,100645.75
2023-02-11T23:46:50.553Z,100640.78
2023-02-11T23:49:19.387Z,100642.25
2023-02-11T23:51:47.907Z,100638.13
2023-02-11T23:54:16.949Z,100646.13
2023-02-11T23:56:47.039Z,100641.91
2023-02-11T23:59:15.841Z,100648.81
